PWSweather.com
Personal Weather Stations
Station Observations

BunburyAU

Lat: -33.378333, Lon: 115.651667

Elevation: 65

Station Type: Oregon Scientific WMR88

http://www.collegegrove.info

Latest ConditionsUpdated 2:30:01 PM GMT+08:08 Friday, Sep 30, 2016
Currently Today's Max Today's Min Today's Average
Temperature 65.7°F18.7°C 66.2°F19.0°C 54.0°F12.2°C 58.5°F14.7°C
Dew Point 52.7°F11.5°C 54.5°F12.5°C 40.9°F4.9°C 47.7°F8.7°C
Winds 4.0 mph N6.4 kmh N 4.5 mph NW7.2 kmh NW - 2.6 mph 4.2 kmh
Wind Gusts 10.1 mph16.3 kmh 13.2 mph21.2 kmh - -
Humidity 63% 81% 60% 68%
Pressure 29.71 in1006.1 mb 29.86 in1011.2 mb 29.71 in1006.1 mb -
Precipitation - 0.04 in1.0 mm - -
Hour Temp Dew Point Humidity Winds Wind Gusts Pressure Precip Precip Rate Daily Precip Total
02:30 PM 65.7°F18.7°C 52.7°F11.5°C 63% 4.0 mph N6.4 kmh N 10.1 mph16.3 kmh 29.71 in1006.1 mb 0.00 in0.0 mm 0.00 in0.0 mm 0.04 in1.0 mm
02:15 PM 66.0°F18.9°C 53.1°F11.7°C 63% 2.6 mph NW4.2 kmh NW 3.4 mph5.5 kmh 29.71 in1006.1 mb 0.00 in0.0 mm 0.00 in0.0 mm 0.04 in1.0 mm
02:00 PM 66.2°F19.0°C 52.8°F11.6°C 62% 3.2 mph WNW5.1 kmh WNW 7.8 mph12.6 kmh 29.71 in1006.1 mb 0.00 in0.0 mm 0.00 in0.0 mm 0.04 in1.0 mm
01:45 PM 66.0°F18.9°C 53.5°F11.9°C 64% 3.0 mph E4.8 kmh E 4.3 mph6.9 kmh 29.71 in1006.1 mb 0.00 in0.0 mm 0.00 in0.0 mm 0.04 in1.0 mm
01:30 PM 65.7°F18.7°C 53.6°F12.0°C 65% 3.2 mph NNE5.1 kmh NNE 4.0 mph6.4 kmh 29.71 in1006.1 mb 0.00 in0.0 mm 0.00 in0.0 mm 0.04 in1.0 mm
01:15 PM 65.1°F18.4°C 53.9°F12.2°C 67% 3.3 mph ENE5.3 kmh ENE 4.9 mph7.9 kmh 29.71 in1006.1 mb 0.00 in0.0 mm 0.00 in0.0 mm 0.04 in1.0 mm
01:00 PM 64.2°F17.9°C 52.6°F11.4°C 66% 3.3 mph N5.3 kmh N 4.9 mph7.9 kmh 29.71 in1006.1 mb 0.00 in0.0 mm 0.00 in0.0 mm 0.04 in1.0 mm
12:45 PM 64.4°F18.0°C 53.2°F11.8°C 67% 3.0 mph W4.8 kmh W 5.8 mph9.3 kmh 29.71 in1006.1 mb 0.00 in0.0 mm 0.00 in0.0 mm 0.04 in1.0 mm
12:30 PM 62.4°F16.9°C 52.1°F11.2°C 69% 2.7 mph WNW4.3 kmh WNW 3.8 mph6.1 kmh 29.74 in1007.1 mb 0.00 in0.0 mm 0.00 in0.0 mm 0.04 in1.0 mm
12:15 PM 63.5°F17.5°C 53.1°F11.7°C 69% 3.7 mph W6.0 kmh W 5.6 mph9.0 kmh 29.74 in1007.1 mb 0.00 in0.0 mm 0.00 in0.0 mm 0.04 in1.0 mm
12:00 PM 64.8°F18.2°C 52.7°F11.5°C 65% 3.5 mph ENE5.6 kmh ENE 6.0 mph9.7 kmh 29.71 in1006.1 mb 0.00 in0.0 mm 0.00 in0.0 mm 0.04 in1.0 mm
11:45 AM 64.2°F17.9°C 53.0°F11.7°C 67% 2.9 mph ESE4.7 kmh ESE 4.9 mph7.9 kmh 29.71 in1006.1 mb 0.00 in0.0 mm 0.00 in0.0 mm 0.04 in1.0 mm
11:30 AM 65.3°F18.5°C 54.5°F12.5°C 68% 3.0 mph N4.8 kmh N 4.7 mph7.6 kmh 29.74 in1007.1 mb 0.00 in0.0 mm 0.00 in0.0 mm 0.04 in1.0 mm
11:15 AM 63.5°F17.5°C 53.1°F11.7°C 69% 4.0 mph WSW6.4 kmh WSW 7.2 mph11.6 kmh 29.74 in1007.1 mb 0.00 in0.0 mm 0.00 in0.0 mm 0.04 in1.0 mm
11:00 AM 63.5°F17.5°C 53.5°F11.9°C 70% 3.0 mph N4.8 kmh N 7.6 mph12.2 kmh 29.74 in1007.1 mb 0.00 in0.0 mm 0.00 in0.0 mm 0.04 in1.0 mm
10:45 AM 62.4°F16.9°C 53.3°F11.8°C 72% 3.6 mph NE5.8 kmh NE 6.3 mph10.1 kmh 29.74 in1007.1 mb 0.00 in0.0 mm 0.00 in0.0 mm 0.04 in1.0 mm
10:30 AM 61.3°F16.3°C 53.0°F11.7°C 74% 2.9 mph WNW4.7 kmh WNW 5.6 mph9.0 kmh 29.74 in1007.1 mb 0.00 in0.0 mm 0.00 in0.0 mm 0.04 in1.0 mm
10:15 AM 60.1°F15.6°C 52.5°F11.4°C 76% 3.4 mph NE5.5 kmh NE 7.6 mph12.2 kmh 29.74 in1007.1 mb 0.00 in0.0 mm 0.00 in0.0 mm 0.04 in1.0 mm
10:00 AM 59.4°F15.2°C 52.5°F11.4°C 78% 2.5 mph NE4.0 kmh NE 4.0 mph6.4 kmh 29.74 in1007.1 mb 0.00 in0.0 mm 0.00 in0.0 mm 0.04 in1.0 mm
09:45 AM 59.4°F15.2°C 53.2°F11.8°C 80% 2.1 mph ESE3.4 kmh ESE 3.1 mph5.0 kmh 29.74 in1007.1 mb 0.00 in0.0 mm 0.00 in0.0 mm 0.04 in1.0 mm
09:30 AM 58.1°F14.5°C 52.3°F11.3°C 81% 2.3 mph NE3.7 kmh NE 5.4 mph8.7 kmh 29.74 in1007.1 mb 0.04 in1.0 mm 0.00 in0.0 mm 0.04 in1.0 mm
09:15 AM 58.3°F14.6°C 52.5°F11.4°C 81% 3.1 mph N5.0 kmh N 7.4 mph11.9 kmh 29.74 in1007.1 mb 0.04 in1.0 mm 0.00 in0.0 mm 0.04 in1.0 mm
09:00 AM 57.4°F14.1°C 51.3°F10.7°C 80% 3.1 mph W5.0 kmh W 7.4 mph11.9 kmh 29.74 in1007.1 mb 0.04 in1.0 mm 0.00 in0.0 mm 0.04 in1.0 mm
08:45 AM 58.1°F14.5°C 52.0°F11.1°C 80% 3.3 mph NE5.3 kmh NE 7.4 mph11.9 kmh 29.74 in1007.1 mb 0.04 in1.0 mm 0.16 in4.1 mm 0.04 in1.0 mm
08:30 AM 58.3°F14.6°C 51.4°F10.8°C 78% 3.6 mph N5.8 kmh N 6.5 mph10.5 kmh 29.74 in1007.1 mb 0.00 in0.0 mm 0.00 in0.0 mm 0.00 in0.0 mm
08:15 AM 58.8°F14.9°C 49.8°F9.9°C 72% 3.0 mph N4.8 kmh N 4.3 mph6.9 kmh 29.71 in1006.1 mb 0.00 in0.0 mm 0.00 in0.0 mm 0.00 in0.0 mm
08:00 AM 58.5°F14.7°C 49.5°F9.7°C 72% 4.2 mph NNW6.8 kmh NNW 6.3 mph10.1 kmh 29.71 in1006.1 mb 0.00 in0.0 mm 0.00 in0.0 mm 0.00 in0.0 mm
07:45 AM 58.1°F14.5°C 48.7°F9.3°C 71% 4.0 mph NNW6.4 kmh NNW 6.5 mph10.5 kmh 29.74 in1007.1 mb 0.00 in0.0 mm 0.00 in0.0 mm 0.00 in0.0 mm
07:30 AM 57.6°F14.2°C 48.2°F9.0°C 71% 3.8 mph NW6.1 kmh NW 7.4 mph11.9 kmh 29.74 in1007.1 mb 0.00 in0.0 mm 0.00 in0.0 mm 0.00 in0.0 mm
07:15 AM 57.0°F13.9°C 47.7°F8.7°C 71% 4.5 mph NW7.2 kmh NW 13.2 mph21.2 kmh 29.74 in1007.1 mb 0.00 in0.0 mm 0.00 in0.0 mm 0.00 in0.0 mm
07:00 AM 56.8°F13.8°C 47.5°F8.6°C 71% 4.3 mph NNW6.9 kmh NNW 6.3 mph10.1 kmh 29.74 in1007.1 mb 0.00 in0.0 mm 0.00 in0.0 mm 0.00 in0.0 mm
06:45 AM 56.5°F13.6°C 47.2°F8.4°C 71% 4.0 mph N6.4 kmh N 11.2 mph18.0 kmh 29.74 in1007.1 mb 0.00 in0.0 mm 0.00 in0.0 mm 0.00 in0.0 mm
06:30 AM 56.3°F13.5°C 47.0°F8.3°C 71% 3.5 mph NW5.6 kmh NW 8.7 mph14.0 kmh 29.74 in1007.1 mb 0.00 in0.0 mm 0.00 in0.0 mm 0.00 in0.0 mm
06:15 AM 55.9°F13.3°C 46.3°F7.9°C 70% 3.5 mph N5.6 kmh N 5.6 mph9.0 kmh 29.74 in1007.1 mb 0.00 in0.0 mm 0.00 in0.0 mm 0.00 in0.0 mm
06:00 AM 55.6°F13.1°C 45.6°F7.6°C 69% 2.6 mph N4.2 kmh N 5.4 mph8.7 kmh 29.74 in1007.1 mb 0.00 in0.0 mm 0.00 in0.0 mm 0.00 in0.0 mm
05:45 AM 55.6°F13.1°C 44.8°F7.1°C 67% 3.0 mph N4.8 kmh N 4.9 mph7.9 kmh 29.74 in1007.1 mb 0.00 in0.0 mm 0.00 in0.0 mm 0.00 in0.0 mm
05:30 AM 55.6°F13.1°C 44.4°F6.9°C 66% 3.3 mph N5.3 kmh N 5.8 mph9.3 kmh 29.74 in1007.1 mb 0.00 in0.0 mm 0.00 in0.0 mm 0.00 in0.0 mm
05:15 AM 55.4°F13.0°C 43.8°F6.6°C 65% 2.9 mph WNW4.7 kmh WNW 5.6 mph9.0 kmh 29.74 in1007.1 mb 0.00 in0.0 mm 0.00 in0.0 mm 0.00 in0.0 mm
05:00 AM 55.4°F13.0°C 43.4°F6.3°C 64% 1.9 mph NNW3.1 kmh NNW 3.4 mph5.5 kmh 29.77 in1008.1 mb 0.00 in0.0 mm 0.00 in0.0 mm 0.00 in0.0 mm
04:45 AM 55.6°F13.1°C 43.2°F6.2°C 63% 2.4 mph N3.9 kmh N 5.6 mph9.0 kmh 29.77 in1008.1 mb 0.00 in0.0 mm 0.00 in0.0 mm 0.00 in0.0 mm
04:30 AM 55.6°F13.1°C 42.8°F6.0°C 62% 2.3 mph NNW3.7 kmh NNW 4.7 mph7.6 kmh 29.77 in1008.1 mb 0.00 in0.0 mm 0.00 in0.0 mm 0.00 in0.0 mm
04:15 AM 55.4°F13.0°C 42.6°F5.9°C 62% 1.8 mph NNE2.9 kmh NNE 2.9 mph4.7 kmh 29.77 in1008.1 mb 0.00 in0.0 mm 0.00 in0.0 mm 0.00 in0.0 mm
04:00 AM 55.2°F12.9°C 42.4°F5.8°C 62% 1.6 mph NE2.6 kmh NE 4.3 mph6.9 kmh 29.80 in1009.1 mb 0.00 in0.0 mm 0.00 in0.0 mm 0.00 in0.0 mm
03:45 AM 55.0°F12.8°C 41.8°F5.4°C 61% 2.2 mph NNW3.5 kmh NNW 4.9 mph7.9 kmh 29.80 in1009.1 mb 0.00 in0.0 mm 0.00 in0.0 mm 0.00 in0.0 mm
03:30 AM 54.9°F12.7°C 41.7°F5.4°C 61% 1.4 mph NNE2.3 kmh NNE 3.8 mph6.1 kmh 29.80 in1009.1 mb 0.00 in0.0 mm 0.00 in0.0 mm 0.00 in0.0 mm
03:15 AM 54.7°F12.6°C 41.1°F5.1°C 60% 1.2 mph NE1.9 kmh NE 2.7 mph4.3 kmh 29.80 in1009.1 mb 0.00 in0.0 mm 0.00 in0.0 mm 0.00 in0.0 mm
03:00 AM 54.5°F12.5°C 40.9°F4.9°C 60% 1.9 mph ENE3.1 kmh ENE 4.3 mph6.9 kmh 29.83 in1010.2 mb 0.00 in0.0 mm 0.00 in0.0 mm 0.00 in0.0 mm
02:45 AM 54.5°F12.5°C 41.3°F5.2°C 61% 1.2 mph NE1.9 kmh NE 4.7 mph7.6 kmh 29.83 in1010.2 mb 0.00 in0.0 mm 0.00 in0.0 mm 0.00 in0.0 mm
02:30 AM 54.3°F12.4°C 41.1°F5.1°C 61% 1.2 mph N1.9 kmh N 3.4 mph5.5 kmh 29.83 in1010.2 mb 0.00 in0.0 mm 0.00 in0.0 mm 0.00 in0.0 mm
02:15 AM 54.3°F12.4°C 41.6°F5.3°C 62% 1.7 mph W2.7 kmh W 2.7 mph4.3 kmh 29.83 in1010.2 mb 0.00 in0.0 mm 0.00 in0.0 mm 0.00 in0.0 mm
02:00 AM 54.1°F12.3°C 41.8°F5.4°C 63% 0.7 mph E1.1 kmh E 2.2 mph3.5 kmh 29.83 in1010.2 mb 0.00 in0.0 mm 0.00 in0.0 mm 0.00 in0.0 mm
01:45 AM 54.0°F12.2°C 41.6°F5.3°C 63% 0.5 mph ESE0.8 kmh ESE 2.0 mph3.2 kmh 29.83 in1010.2 mb 0.00 in0.0 mm 0.00 in0.0 mm 0.00 in0.0 mm
01:30 AM 54.0°F12.2°C 41.2°F5.1°C 62% 0.3 mph NW0.5 kmh NW 1.6 mph2.6 kmh 29.83 in1010.2 mb 0.00 in0.0 mm 0.00 in0.0 mm 0.00 in0.0 mm
01:15 AM 54.0°F12.2°C 41.2°F5.1°C 62% 1.3 mph NE2.1 kmh NE 2.0 mph3.2 kmh 29.86 in1011.2 mb 0.00 in0.0 mm 0.00 in0.0 mm 0.00 in0.0 mm
01:00 AM 54.1°F12.3°C 41.4°F5.2°C 62% 1.2 mph NNE1.9 kmh NNE 3.1 mph5.0 kmh 29.83 in1010.2 mb 0.00 in0.0 mm 0.00 in0.0 mm 0.00 in0.0 mm
12:45 AM 54.3°F12.4°C 41.6°F5.3°C 62% 0.9 mph SE1.4 kmh SE 3.6 mph5.8 kmh 29.86 in1011.2 mb 0.00 in0.0 mm 0.00 in0.0 mm 0.00 in0.0 mm
12:30 AM 54.5°F12.5°C 42.2°F5.7°C 63% 0.5 mph ESE0.8 kmh ESE 2.5 mph4.0 kmh 29.86 in1011.2 mb 0.00 in0.0 mm 0.00 in0.0 mm 0.00 in0.0 mm
12:15 AM 54.7°F12.6°C 43.1°F6.2°C 65% 0.1 mph NE0.2 kmh NE 1.3 mph2.1 kmh 29.86 in1011.2 mb 0.00 in0.0 mm 0.00 in0.0 mm 0.00 in0.0 mm
12:00 AM 55.0°F12.8°C 43.1°F6.2°C 64% Calm Calm -- 29.86 in1011.2 mb 0.00 in0.0 mm 0.00 in0.0 mm 0.00 in0.0 mm